International Virtual Aviation Organisation

Russian Federation and Kazakhstan MCD

 

Карточка аэропорта ULAA

Внимание!
Информация на этой странице в стадии наполнения.
Если вы не увидели какой-то информации, или заметили неточность - пожалуйста сообщите нам!
Спасибо!
Команда RU-STAFF
Название аэропортаТалаги
Название аэропорта (англ.)Talagi
Превышение62 ft. (18.9 m.)
Координаты64°36.018', 40°43.002'
Высота перехода800m
Эшелон переходаQFE>=760mm:FL040; QFE<760=>733:FL050; QFE<733:FL060
Коды ответчика3120-3127
Зона ОрВДАрхангельск РПИ (ULAA)
Данные METARULAA 181900Z 36002MPS 9999 FEW020 02/00 Q1003 R08/190065 NOSIG RMK QFE752/1002
Проноз погоды (TAF)ULAA 181657Z 1818/1918 32004MPS 6000 BKN015 TEMPO 1818/1821 35003G08MPS 0500 -SHRA FG FEW002 BKN011CB TEMPO 1821/1907 VRB01MPS 0400 FG BKN002 TEMPO 1907/1918 30005G11MPS 4000 -SHRA BKN012CB
NOTAMshow/hide NOTAM
AWOS   TABLE

Информация о ВПП


Диспетчерские позиции

Позывной Наименование органа УВД Частота
ULAA_TWRАрхангельск-Вышка121.8
ULAA_APPАрхангельск-Подход122.0



Спутниковое изображение